sensor_id;sensor_type;location;lat;lon;timestamp;pressure;altitude;pressure_sealevel;temperature;humidity
70555;BME280;58104;52.744;15.242;2023-07-30T00:00:14;100067.71;;;24.97;49.97
70555;BME280;58104;52.744;15.242;2023-07-30T00:02:39;100072.26;;;25.17;49.60
70555;BME280;58104;52.744;15.242;2023-07-30T00:05:04;100070.31;;;25.22;49.52
70555;BME280;58104;52.744;15.242;2023-07-30T00:07:29;100072.18;;;25.17;49.41
70555;BME280;58104;52.744;15.242;2023-07-30T00:09:55;100076.89;;;25.22;49.06
70555;BME280;58104;52.744;15.242;2023-07-30T00:12:20;100080.57;;;25.21;49.32
70555;BME280;58104;52.744;15.242;2023-07-30T00:14:45;100079.34;;;24.86;50.22
70555;BME280;58104;52.744;15.242;2023-07-30T00:17:11;100086.59;;;25.33;49.59
70555;BME280;58104;52.744;15.242;2023-07-30T00:19:36;100083.97;;;25.24;50.02
70555;BME280;58104;52.744;15.242;2023-07-30T00:22:01;100089.48;;;25.46;49.48
70555;BME280;58104;52.744;15.242;2023-07-30T00:24:27;100093.90;;;25.53;49.48
70555;BME280;58104;52.744;15.242;2023-07-30T00:26:52;100094.52;;;25.47;49.35
70555;BME280;58104;52.744;15.242;2023-07-30T00:29:17;100093.13;;;25.58;49.32
70555;BME280;58104;52.744;15.242;2023-07-30T00:31:43;100090.36;;;25.66;49.02
70555;BME280;58104;52.744;15.242;2023-07-30T00:34:08;100090.41;;;25.62;49.24
70555;BME280;58104;52.744;15.242;2023-07-30T00:36:33;100087.15;;;25.62;49.30
70555;BME280;58104;52.744;15.242;2023-07-30T00:38:58;100085.84;;;25.69;49.23
70555;BME280;58104;52.744;15.242;2023-07-30T00:41:24;100085.26;;;25.58;49.41
70555;BME280;58104;52.744;15.242;2023-07-30T00:43:49;100083.43;;;25.45;49.76
70555;BME280;58104;52.744;15.242;2023-07-30T00:46:15;100084.67;;;25.53;49.53
70555;BME280;58104;52.744;15.242;2023-07-30T00:48:40;100085.28;;;25.80;48.83
70555;BME280;58104;52.744;15.242;2023-07-30T00:51:06;100076.87;;;25.36;49.81
70555;BME280;58104;52.744;15.242;2023-07-30T00:53:31;100076.81;;;25.18;50.15
70555;BME280;58104;52.744;15.242;2023-07-30T00:55:56;100079.58;;;25.33;49.90
70555;BME280;58104;52.744;15.242;2023-07-30T00:58:23;100090.58;;;25.60;49.25
70555;BME280;58104;52.744;15.242;2023-07-30T01:00:47;100096.73;;;25.61;49.24
70555;BME280;58104;52.744;15.242;2023-07-30T01:03:12;100100.64;;;25.39;49.01
70555;BME280;58104;52.744;15.242;2023-07-30T01:05:37;100104.96;;;25.25;49.68
70555;BME280;58104;52.744;15.242;2023-07-30T01:08:03;100102.52;;;25.18;49.72
70555;BME280;58104;52.744;15.242;2023-07-30T01:10:30;100100.70;;;25.09;50.01
70555;BME280;58104;52.744;15.242;2023-07-30T01:12:53;100100.64;;;25.17;49.89
70555;BME280;58104;52.744;15.242;2023-07-30T01:15:19;100101.23;;;25.29;49.77
70555;BME280;58104;52.744;15.242;2023-07-30T01:17:45;100098.41;;;25.57;49.12
70555;BME280;58104;52.744;15.242;2023-07-30T01:20:11;100099.40;;;25.59;48.89
70555;BME280;58104;52.744;15.242;2023-07-30T01:22:35;100101.79;;;25.51;49.33
70555;BME280;58104;52.744;15.242;2023-07-30T01:25:00;100099.64;;;25.34;49.60
70555;BME280;58104;52.744;15.242;2023-07-30T01:27:28;100099.06;;;25.20;50.13
70555;BME280;58104;52.744;15.242;2023-07-30T01:29:52;100097.79;;;25.06;50.32
70555;BME280;58104;52.744;15.242;2023-07-30T01:32:17;100100.28;;;25.06;50.36
70555;BME280;58104;52.744;15.242;2023-07-30T01:34:43;100097.49;;;25.23;49.93
70555;BME280;58104;52.744;15.242;2023-07-30T01:37:09;100094.62;;;25.32;49.74
70555;BME280;58104;52.744;15.242;2023-07-30T01:39:33;100093.83;;;25.41;49.52
70555;BME280;58104;52.744;15.242;2023-07-30T01:41:58;100085.84;;;25.41;49.47
70555;BME280;58104;52.744;15.242;2023-07-30T01:44:23;100081.21;;;25.36;49.66
70555;BME280;58104;52.744;15.242;2023-07-30T01:46:48;100075.16;;;25.21;50.12
70555;BME280;58104;52.744;15.242;2023-07-30T01:49:14;100075.95;;;25.02;50.65
70555;BME280;58104;52.744;15.242;2023-07-30T01:51:39;100079.82;;;25.05;50.75
70555;BME280;58104;52.744;15.242;2023-07-30T01:54:04;100084.32;;;25.03;50.85
70555;BME280;58104;52.744;15.242;2023-07-30T01:56:30;100078.38;;;25.01;51.03
70555;BME280;58104;52.744;15.242;2023-07-30T01:58:55;100075.26;;;24.86;50.48
70555;BME280;58104;52.744;15.242;2023-07-30T02:01:20;100074.06;;;24.55;50.55
70555;BME280;58104;52.744;15.242;2023-07-30T02:03:46;100070.18;;;24.52;50.77
70555;BME280;58104;52.744;15.242;2023-07-30T02:06:11;100068.91;;;24.29;50.90
70555;BME280;58104;52.744;15.242;2023-07-30T02:08:36;100072.31;;;24.30;50.80
70555;BME280;58104;52.744;15.242;2023-07-30T02:11:02;100076.54;;;24.41;50.38
70555;BME280;58104;52.744;15.242;2023-07-30T02:13:27;100078.44;;;24.31;50.74
70555;BME280;58104;52.744;15.242;2023-07-30T02:15:52;100079.22;;;24.33;50.47
70555;BME280;58104;52.744;15.242;2023-07-30T02:18:18;100078.88;;;24.19;50.69
70555;BME280;58104;52.744;15.242;2023-07-30T02:20:43;100082.55;;;24.27;50.74
70555;BME280;58104;52.744;15.242;2023-07-30T02:23:08;100082.59;;;24.27;50.72
70555;BME280;58104;52.744;15.242;2023-07-30T02:25:34;100089.36;;;24.27;50.78
70555;BME280;58104;52.744;15.242;2023-07-30T02:28:00;100093.90;;;24.14;50.92
70555;BME280;58104;52.744;15.242;2023-07-30T02:30:25;100097.41;;;24.07;50.99
70555;BME280;58104;52.744;15.242;2023-07-30T02:32:50;100100.13;;;24.01;51.15
70555;BME280;58104;52.744;15.242;2023-07-30T02:35:15;100104.75;;;24.03;51.03
70555;BME280;58104;52.744;15.242;2023-07-30T02:37:40;100106.43;;;24.04;51.01
70555;BME280;58104;52.744;15.242;2023-07-30T02:40:07;100106.98;;;23.98;51.18
70555;BME280;58104;52.744;15.242;2023-07-30T02:42:31;100107.41;;;23.88;51.27
70555;BME280;58104;52.744;15.242;2023-07-30T02:44:57;100107.09;;;23.90;51.57
70555;BME280;58104;52.744;15.242;2023-07-30T02:47:22;100109.03;;;23.69;52.13
70555;BME280;58104;52.744;15.242;2023-07-30T02:49:47;100109.42;;;23.79;51.90
70555;BME280;58104;52.744;15.242;2023-07-30T02:52:12;100108.44;;;23.67;52.22
70555;BME280;58104;52.744;15.242;2023-07-30T02:54:38;100106.90;;;23.68;52.32
70555;BME280;58104;52.744;15.242;2023-07-30T02:57:04;100105.22;;;23.67;52.50
70555;BME280;58104;52.744;15.242;2023-07-30T02:59:28;100099.97;;;23.73;52.38
70555;BME280;58104;52.744;15.242;2023-07-30T03:01:54;100096.40;;;23.85;52.11
70555;BME280;58104;52.744;15.242;2023-07-30T03:04:19;100095.89;;;23.73;52.51
70555;BME280;58104;52.744;15.242;2023-07-30T03:06:44;100094.25;;;23.58;52.83
70555;BME280;58104;52.744;15.242;2023-07-30T03:09:10;100100.49;;;23.49;53.12
70555;BME280;58104;52.744;15.242;2023-07-30T03:11:35;100098.34;;;23.38;53.30
70555;BME280;58104;52.744;15.242;2023-07-30T03:14:00;100102.93;;;23.35;53.55
70555;BME280;58104;52.744;15.242;2023-07-30T03:16:25;100105.63;;;23.39;53.40
70555;BME280;58104;52.744;15.242;2023-07-30T03:18:51;100103.53;;;23.35;53.65
70555;BME280;58104;52.744;15.242;2023-07-30T03:21:16;100107.40;;;23.33;53.75
70555;BME280;58104;52.744;15.242;2023-07-30T03:23:41;100109.59;;;23.31;53.80
70555;BME280;58104;52.744;15.242;2023-07-30T03:26:07;100114.41;;;23.30;53.73
70555;BME280;58104;52.744;15.242;2023-07-30T03:28:32;100119.98;;;23.24;53.77
70555;BME280;58104;52.744;15.242;2023-07-30T03:30:57;100119.52;;;23.21;53.59
70555;BME280;58104;52.744;15.242;2023-07-30T03:33:22;100125.10;;;23.14;53.67
70555;BME280;58104;52.744;15.242;2023-07-30T03:35:48;100127.48;;;23.17;53.55
70555;BME280;58104;52.744;15.242;2023-07-30T03:38:13;100130.22;;;23.14;53.54
70555;BME280;58104;52.744;15.242;2023-07-30T03:40:39;100128.27;;;23.24;53.34
70555;BME280;58104;52.744;15.242;2023-07-30T03:43:04;100131.16;;;23.21;53.32
70555;BME280;58104;52.744;15.242;2023-07-30T03:45:30;100133.99;;;23.21;53.27
70555;BME280;58104;52.744;15.242;2023-07-30T03:47:55;100133.23;;;23.21;53.34
70555;BME280;58104;52.744;15.242;2023-07-30T03:50:20;100129.89;;;23.17;53.38
70555;BME280;58104;52.744;15.242;2023-07-30T03:52:46;100137.52;;;23.19;53.29
70555;BME280;58104;52.744;15.242;2023-07-30T03:55:11;100141.99;;;23.29;53.17
70555;BME280;58104;52.744;15.242;2023-07-30T03:57:37;100143.92;;;23.25;53.13
70555;BME280;58104;52.744;15.242;2023-07-30T04:00:03;100143.15;;;23.29;53.09
70555;BME280;58104;52.744;15.242;2023-07-30T04:02:27;100146.73;;;23.23;53.30
70555;BME280;58104;52.744;15.242;2023-07-30T04:04:52;100151.61;;;23.16;53.50
70555;BME280;58104;52.744;15.242;2023-07-30T04:07:18;100153.40;;;23.18;53.51
70555;BME280;58104;52.744;15.242;2023-07-30T04:09:43;100156.55;;;23.17;53.59
70555;BME280;58104;52.744;15.242;2023-07-30T04:12:08;100159.29;;;23.33;53.30
70555;BME280;58104;52.744;15.242;2023-07-30T04:14:33;100157.27;;;23.31;53.27
70555;BME280;58104;52.744;15.242;2023-07-30T04:16:59;100157.33;;;23.30;53.56
70555;BME280;58104;52.744;15.242;2023-07-30T04:19:24;100160.72;;;23.23;53.60
70555;BME280;58104;52.744;15.242;2023-07-30T04:21:49;100162.04;;;23.28;53.71
70555;BME280;58104;52.744;15.242;2023-07-30T04:24:15;100168.12;;;23.35;53.68
70555;BME280;58104;52.744;15.242;2023-07-30T04:26:40;100176.74;;;23.32;53.88
70555;BME280;58104;52.744;15.242;2023-07-30T04:29:05;100180.95;;;23.37;53.82
70555;BME280;58104;52.744;15.242;2023-07-30T04:31:31;100183.98;;;23.39;53.65
70555;BME280;58104;52.744;15.242;2023-07-30T04:33:56;100184.50;;;23.42;53.52
70555;BME280;58104;52.744;15.242;2023-07-30T04:36:22;100184.58;;;23.39;53.56
70555;BME280;58104;52.744;15.242;2023-07-30T04:38:47;100191.28;;;23.32;53.77
70555;BME280;58104;52.744;15.242;2023-07-30T04:41:12;100194.81;;;23.34;53.85
70555;BME280;58104;52.744;15.242;2023-07-30T04:43:37;100203.71;;;23.52;53.35
70555;BME280;58104;52.744;15.242;2023-07-30T04:46:03;100204.17;;;23.60;53.47
70555;BME280;58104;52.744;15.242;2023-07-30T04:48:28;100204.14;;;23.77;52.84
70555;BME280;58104;52.744;15.242;2023-07-30T04:50:53;100206.67;;;23.65;52.93
70555;BME280;58104;52.744;15.242;2023-07-30T04:53:18;100211.19;;;23.68;52.83
70555;BME280;58104;52.744;15.242;2023-07-30T04:55:44;100213.80;;;23.54;53.33
70555;BME280;58104;52.744;15.242;2023-07-30T04:58:09;100215.02;;;23.54;53.23
70555;BME280;58104;52.744;15.242;2023-07-30T05:00:34;100216.01;;;23.47;53.50
70555;BME280;58104;52.744;15.242;2023-07-30T05:02:59;100213.70;;;23.40;53.88
70555;BME280;58104;52.744;15.242;2023-07-30T05:05:25;100214.62;;;23.44;53.73
70555;BME280;58104;52.744;15.242;2023-07-30T05:07:50;100216.32;;;23.37;53.74
70555;BME280;58104;52.744;15.242;2023-07-30T05:10:16;100219.80;;;23.36;53.72
70555;BME280;58104;52.744;15.242;2023-07-30T05:12:41;100221.00;;;23.45;53.82
70555;BME280;58104;52.744;15.242;2023-07-30T05:15:07;100222.23;;;23.61;53.12
70555;BME280;58104;52.744;15.242;2023-07-30T05:17:31;100224.96;;;23.74;52.50
70555;BME280;58104;52.744;15.242;2023-07-30T05:19:57;100230.28;;;23.80;52.65
70555;BME280;58104;52.744;15.242;2023-07-30T05:22:22;100234.71;;;23.75;52.45
70555;BME280;58104;52.744;15.242;2023-07-30T05:24:47;100233.37;;;23.81;52.37
70555;BME280;58104;52.744;15.242;2023-07-30T05:27:13;100232.03;;;23.81;52.33
70555;BME280;58104;52.744;15.242;2023-07-30T05:29:38;100227.68;;;23.96;52.05
70555;BME280;58104;52.744;15.242;2023-07-30T05:32:04;100226.54;;;23.80;52.29
70555;BME280;58104;52.744;15.242;2023-07-30T05:34:28;100227.55;;;23.94;51.96
70555;BME280;58104;52.744;15.242;2023-07-30T05:36:53;100226.59;;;23.99;51.86
70555;BME280;58104;52.744;15.242;2023-07-30T05:39:19;100226.71;;;23.95;51.93
70555;BME280;58104;52.744;15.242;2023-07-30T05:41:44;100224.32;;;23.98;51.82
70555;BME280;58104;52.744;15.242;2023-07-30T05:44:10;100224.13;;;23.99;51.73
70555;BME280;58104;52.744;15.242;2023-07-30T05:46:35;100225.33;;;23.99;51.74
70555;BME280;58104;52.744;15.242;2023-07-30T05:49:00;100223.25;;;23.97;51.93
70555;BME280;58104;52.744;15.242;2023-07-30T05:51:25;100222.90;;;24.01;51.71
70555;BME280;58104;52.744;15.242;2023-07-30T05:53:50;100221.06;;;24.01;51.88
70555;BME280;58104;52.744;15.242;2023-07-30T05:56:16;100221.08;;;23.78;52.23
70555;BME280;58104;52.744;15.242;2023-07-30T05:58:41;100223.50;;;23.80;52.39
70555;BME280;58104;52.744;15.242;2023-07-30T06:01:06;100223.17;;;23.84;52.38
70555;BME280;58104;52.744;15.242;2023-07-30T06:03:31;100224.09;;;23.90;52.42
70555;BME280;58104;52.744;15.242;2023-07-30T06:05:57;100220.63;;;23.93;52.02
70555;BME280;58104;52.744;15.242;2023-07-30T06:08:23;100215.93;;;23.75;52.52
70555;BME280;58104;52.744;15.242;2023-07-30T06:10:49;100211.50;;;23.66;52.84
70555;BME280;58104;52.744;15.242;2023-07-30T06:13:14;100210.59;;;23.96;52.07
70555;BME280;58104;52.744;15.242;2023-07-30T06:15:39;100212.23;;;24.16;51.77
70555;BME280;58104;52.744;15.242;2023-07-30T06:18:04;100216.32;;;24.20;51.60
70555;BME280;58104;52.744;15.242;2023-07-30T06:20:30;100219.75;;;24.18;51.74
70555;BME280;58104;52.744;15.242;2023-07-30T06:22:55;100219.71;;;24.11;52.20
70555;BME280;58104;52.744;15.242;2023-07-30T06:25:20;100215.80;;;24.10;52.25
70555;BME280;58104;52.744;15.242;2023-07-30T06:27:45;100213.74;;;24.10;52.19
70555;BME280;58104;52.744;15.242;2023-07-30T06:30:11;100210.54;;;24.18;51.88
70555;BME280;58104;52.744;15.242;2023-07-30T06:32:36;100211.39;;;24.16;52.06
70555;BME280;58104;52.744;15.242;2023-07-30T06:35:02;100212.19;;;24.17;52.22
70555;BME280;58104;52.744;15.242;2023-07-30T06:37:27;100211.77;;;24.09;52.41
70555;BME280;58104;52.744;15.242;2023-07-30T06:39:53;100216.19;;;24.19;51.82
70555;BME280;58104;52.744;15.242;2023-07-30T06:42:18;100217.55;;;24.24;51.82
70555;BME280;58104;52.744;15.242;2023-07-30T06:44:44;100218.44;;;24.21;52.18
70555;BME280;58104;52.744;15.242;2023-07-30T06:47:09;100216.03;;;24.24;51.74
70555;BME280;58104;52.744;15.242;2023-07-30T06:49:34;100216.41;;;24.26;51.91
70555;BME280;58104;52.744;15.242;2023-07-30T06:52:00;100215.15;;;24.17;52.16
70555;BME280;58104;52.744;15.242;2023-07-30T06:54:25;100221.39;;;24.23;51.99
70555;BME280;58104;52.744;15.242;2023-07-30T06:56:50;100221.06;;;24.26;51.93
70555;BME280;58104;52.744;15.242;2023-07-30T06:59:16;100222.87;;;24.34;51.75
70555;BME280;58104;52.744;15.242;2023-07-30T07:01:41;100227.25;;;24.35;51.53
70555;BME280;58104;52.744;15.242;2023-07-30T07:04:06;100223.22;;;24.24;51.85
70555;BME280;58104;52.744;15.242;2023-07-30T07:06:31;100222.78;;;24.51;50.83
70555;BME280;58104;52.744;15.242;2023-07-30T07:08:57;100224.27;;;24.65;50.94
70555;BME280;58104;52.744;15.242;2023-07-30T07:11:22;100233.62;;;24.82;50.71
70555;BME280;58104;52.744;15.242;2023-07-30T07:13:47;100230.91;;;24.64;50.56
70555;BME280;58104;52.744;15.242;2023-07-30T07:16:13;100227.88;;;24.81;50.46
70555;BME280;58104;52.744;15.242;2023-07-30T07:18:38;100231.52;;;25.00;49.82
70555;BME280;58104;52.744;15.242;2023-07-30T07:21:04;100235.01;;;24.81;50.58
70555;BME280;58104;52.744;15.242;2023-07-30T07:23:29;100239.72;;;24.91;50.09
70555;BME280;58104;52.744;15.242;2023-07-30T07:25:54;100240.45;;;25.06;49.87
70555;BME280;58104;52.744;15.242;2023-07-30T07:28:19;100236.84;;;25.11;49.74
70555;BME280;58104;52.744;15.242;2023-07-30T07:30:44;100236.64;;;25.12;49.63
70555;BME280;58104;52.744;15.242;2023-07-30T07:33:10;100232.11;;;25.03;50.11
70555;BME280;58104;52.744;15.242;2023-07-30T07:35:35;100233.36;;;25.20;49.96
70555;BME280;58104;52.744;15.242;2023-07-30T07:38:00;100230.96;;;25.09;49.84
70555;BME280;58104;52.744;15.242;2023-07-30T07:40:26;100232.40;;;25.15;49.97
70555;BME280;58104;52.744;15.242;2023-07-30T07:42:51;100232.35;;;25.19;49.73
70555;BME280;58104;52.744;15.242;2023-07-30T07:45:16;100234.02;;;25.32;49.79
70555;BME280;58104;52.744;15.242;2023-07-30T07:47:42;100230.78;;;25.17;49.96
70555;BME280;58104;52.744;15.242;2023-07-30T07:50:08;100229.23;;;25.19;49.72
70555;BME280;58104;52.744;15.242;2023-07-30T07:52:32;100232.90;;;25.31;49.65
70555;BME280;58104;52.744;15.242;2023-07-30T07:54:58;100231.51;;;25.37;49.42
70555;BME280;58104;52.744;15.242;2023-07-30T07:57:23;100227.70;;;25.27;49.52
70555;BME280;58104;52.744;15.242;2023-07-30T07:59:49;100228.09;;;25.19;49.34
70555;BME280;58104;52.744;15.242;2023-07-30T08:02:15;100232.06;;;24.96;49.63
70555;BME280;58104;52.744;15.242;2023-07-30T08:04:40;100233.21;;;24.90;49.80
70555;BME280;58104;52.744;15.242;2023-07-30T08:07:05;100232.26;;;25.15;49.76
70555;BME280;58104;52.744;15.242;2023-07-30T08:09:31;100229.79;;;25.15;49.45
70555;BME280;58104;52.744;15.242;2023-07-30T08:11:56;100224.00;;;25.35;49.15
70555;BME280;58104;52.744;15.242;2023-07-30T08:14:21;100225.31;;;25.31;49.33
70555;BME280;58104;52.744;15.242;2023-07-30T08:16:46;100225.79;;;25.32;49.36
70555;BME280;58104;52.744;15.242;2023-07-30T08:19:11;100225.15;;;25.24;49.24
70555;BME280;58104;52.744;15.242;2023-07-30T08:21:37;100227.30;;;25.22;49.38
70555;BME280;58104;52.744;15.242;2023-07-30T08:24:02;100232.62;;;25.30;49.31
70555;BME280;58104;52.744;15.242;2023-07-30T08:26:27;100228.49;;;25.22;49.64
70555;BME280;58104;52.744;15.242;2023-07-30T08:28:53;100228.51;;;25.30;49.43
70555;BME280;58104;52.744;15.242;2023-07-30T08:31:18;100228.00;;;25.18;49.12
70555;BME280;58104;52.744;15.242;2023-07-30T08:33:43;100224.99;;;25.24;49.23
70555;BME280;58104;52.744;15.242;2023-07-30T08:36:09;100227.76;;;25.35;49.17
70555;BME280;58104;52.744;15.242;2023-07-30T08:38:34;100230.41;;;25.37;49.21
70555;BME280;58104;52.744;15.242;2023-07-30T08:41:00;100232.27;;;25.48;48.90
70555;BME280;58104;52.744;15.242;2023-07-30T08:43:25;100238.91;;;25.33;49.16
70555;BME280;58104;52.744;15.242;2023-07-30T08:45:50;100235.85;;;25.41;48.86
70555;BME280;58104;52.744;15.242;2023-07-30T08:48:16;100231.50;;;25.39;48.86
70555;BME280;58104;52.744;15.242;2023-07-30T08:50:42;100232.75;;;25.42;48.67
70555;BME280;58104;52.744;15.242;2023-07-30T08:53:08;100228.62;;;25.42;48.75
70555;BME280;58104;52.744;15.242;2023-07-30T08:55:33;100228.03;;;25.48;48.48
70555;BME280;58104;52.744;15.242;2023-07-30T08:57:58;100225.79;;;25.52;48.23
70555;BME280;58104;52.744;15.242;2023-07-30T09:00:24;100226.76;;;25.61;48.26
70555;BME280;58104;52.744;15.242;2023-07-30T09:02:51;100227.41;;;25.63;48.05
70555;BME280;58104;52.744;15.242;2023-07-30T09:05:13;100220.46;;;25.63;47.89
70555;BME280;58104;52.744;15.242;2023-07-30T09:07:38;100219.33;;;25.59;47.64
70555;BME280;58104;52.744;15.242;2023-07-30T09:10:05;100220.24;;;25.54;47.96
70555;BME280;58104;52.744;15.242;2023-07-30T09:12:29;100220.45;;;25.51;48.08
70555;BME280;58104;52.744;15.242;2023-07-30T09:14:55;100218.51;;;25.61;47.95
70555;BME280;58104;52.744;15.242;2023-07-30T09:17:20;100219.68;;;25.76;47.76
70555;BME280;58104;52.744;15.242;2023-07-30T09:19:45;100222.15;;;25.86;47.44
70555;BME280;58104;52.744;15.242;2023-07-30T09:22:10;100216.75;;;25.78;47.38
70555;BME280;58104;52.744;15.242;2023-07-30T09:24:36;100222.12;;;25.84;47.55
70555;BME280;58104;52.744;15.242;2023-07-30T09:27:02;100215.30;;;25.90;47.39
70555;BME280;58104;52.744;15.242;2023-07-30T09:29:26;100212.62;;;26.02;47.36
70555;BME280;58104;52.744;15.242;2023-07-30T09:31:53;100217.65;;;26.14;47.19
70555;BME280;58104;52.744;15.242;2023-07-30T09:34:17;100215.83;;;25.99;47.48
70555;BME280;58104;52.744;15.242;2023-07-30T09:36:44;100213.32;;;26.09;47.36
70555;BME280;58104;52.744;15.242;2023-07-30T09:39:16;100215.06;;;26.01;47.57
70555;BME280;58104;52.744;15.242;2023-07-30T09:41:33;100207.70;;;25.66;47.36
70555;BME280;58104;52.744;15.242;2023-07-30T09:43:58;100209.83;;;25.79;47.06
70555;BME280;58104;52.744;15.242;2023-07-30T09:46:28;100212.46;;;25.60;47.94
70555;BME280;58104;52.744;15.242;2023-07-30T09:48:49;100209.81;;;25.57;47.38
70555;BME280;58104;52.744;15.242;2023-07-30T09:51:14;100210.86;;;25.54;47.41
70555;BME280;58104;52.744;15.242;2023-07-30T09:53:40;100205.56;;;25.62;47.64
70555;BME280;58104;52.744;15.242;2023-07-30T09:56:05;100204.90;;;25.83;47.26
70555;BME280;58104;52.744;15.242;2023-07-30T09:58:30;100204.15;;;25.92;47.10
70555;BME280;58104;52.744;15.242;2023-07-30T10:00:57;100216.54;;;25.96;46.71
70555;BME280;58104;52.744;15.242;2023-07-30T10:03:21;100215.90;;;25.99;46.47
70555;BME280;58104;52.744;15.242;2023-07-30T10:05:47;100212.80;;;25.99;46.38
70555;BME280;58104;52.744;15.242;2023-07-30T10:08:15;100209.51;;;26.25;45.71
70555;BME280;58104;52.744;15.242;2023-07-30T10:10:36;100221.83;;;26.05;46.81
70555;BME280;58104;52.744;15.242;2023-07-30T10:13:06;100218.06;;;25.96;46.64
70555;BME280;58104;52.744;15.242;2023-07-30T10:15:27;100217.95;;;25.74;46.82
70555;BME280;58104;52.744;15.242;2023-07-30T10:17:56;100218.88;;;25.69;47.44
70555;BME280;58104;52.744;15.242;2023-07-30T10:20:22;100216.58;;;25.77;47.02
70555;BME280;58104;52.744;15.242;2023-07-30T10:22:45;100209.68;;;25.83;47.22
70555;BME280;58104;52.744;15.242;2023-07-30T10:25:12;100209.41;;;26.03;46.62
70555;BME280;58104;52.744;15.242;2023-07-30T10:27:37;100219.26;;;25.77;47.07
70555;BME280;58104;52.744;15.242;2023-07-30T10:30:11;100208.73;;;25.81;46.52
70555;BME280;58104;52.744;15.242;2023-07-30T10:32:37;100209.74;;;25.97;46.28
70555;BME280;58104;52.744;15.242;2023-07-30T10:34:55;100203.70;;;25.70;46.62
70555;BME280;58104;52.744;15.242;2023-07-30T10:37:18;100210.81;;;25.91;45.40
70555;BME280;58104;52.744;15.242;2023-07-30T10:39:43;100198.04;;;25.89;45.67
70555;BME280;58104;52.744;15.242;2023-07-30T10:42:08;100194.23;;;26.06;45.10
70555;BME280;58104;52.744;15.242;2023-07-30T10:44:34;100200.16;;;26.04;44.63
70555;BME280;58104;52.744;15.242;2023-07-30T10:47:01;100213.41;;;25.77;45.66
70555;BME280;58104;52.744;15.242;2023-07-30T10:49:25;100193.31;;;25.65;45.55
70555;BME280;58104;52.744;15.242;2023-07-30T10:51:51;100177.85;;;25.66;45.68
70555;BME280;58104;52.744;15.242;2023-07-30T10:54:15;100185.57;;;25.67;45.17
70555;BME280;58104;52.744;15.242;2023-07-30T10:56:41;100186.09;;;25.88;44.31
70555;BME280;58104;52.744;15.242;2023-07-30T10:59:06;100182.62;;;25.91;44.34
70555;BME280;58104;52.744;15.242;2023-07-30T11:01:31;100178.62;;;25.96;44.76
70555;BME280;58104;52.744;15.242;2023-07-30T11:03:57;100186.13;;;26.02;44.54
70555;BME280;58104;52.744;15.242;2023-07-30T11:06:22;100195.78;;;25.93;44.95
70555;BME280;58104;52.744;15.242;2023-07-30T11:08:48;100175.47;;;25.67;45.33
70555;BME280;58104;52.744;15.242;2023-07-30T11:11:13;100171.33;;;25.89;45.00
70555;BME280;58104;52.744;15.242;2023-07-30T11:13:40;100177.10;;;25.78;45.02
70555;BME280;58104;52.744;15.242;2023-07-30T11:16:05;100170.83;;;25.85;45.02
70555;BME280;58104;52.744;15.242;2023-07-30T11:18:31;100177.75;;;25.99;44.78
70555;BME280;58104;52.744;15.242;2023-07-30T11:21:03;100167.46;;;26.09;44.59
70555;BME280;58104;52.744;15.242;2023-07-30T11:23:21;100167.27;;;26.22;44.12
70555;BME280;58104;52.744;15.242;2023-07-30T11:25:46;100158.01;;;26.22;44.04
70555;BME280;58104;52.744;15.242;2023-07-30T11:28:10;100165.10;;;26.45;43.08
70555;BME280;58104;52.744;15.242;2023-07-30T11:30:36;100159.94;;;26.55;42.86
70555;BME280;58104;52.744;15.242;2023-07-30T11:33:01;100164.65;;;26.37;42.67
70555;BME280;58104;52.744;15.242;2023-07-30T11:35:27;100166.95;;;26.39;42.66
70555;BME280;58104;52.744;15.242;2023-07-30T11:37:52;100152.40;;;26.28;41.90
70555;BME280;58104;52.744;15.242;2023-07-30T11:40:17;100156.28;;;26.32;42.62
70555;BME280;58104;52.744;15.242;2023-07-30T11:42:42;100161.66;;;26.11;42.97
70555;BME280;58104;52.744;15.242;2023-07-30T11:45:18;100151.79;;;25.93;43.43
70555;BME280;58104;52.744;15.242;2023-07-30T11:47:33;100152.63;;;26.29;41.74
70555;BME280;58104;52.744;15.242;2023-07-30T11:49:58;100157.04;;;26.40;41.49
70555;BME280;58104;52.744;15.242;2023-07-30T11:52:24;100153.42;;;26.38;42.03
70555;BME280;58104;52.744;15.242;2023-07-30T11:57:14;100144.13;;;26.29;41.42
70555;BME280;58104;52.744;15.242;2023-07-30T11:59:40;100142.31;;;26.41;40.93
70555;BME280;58104;52.744;15.242;2023-07-30T12:02:05;100141.21;;;26.49;41.21
70555;BME280;58104;52.744;15.242;2023-07-30T12:04:31;100135.00;;;26.47;40.96
70555;BME280;58104;52.744;15.242;2023-07-30T12:06:56;100133.21;;;26.47;41.10
70555;BME280;58104;52.744;15.242;2023-07-30T12:09:23;100146.00;;;26.48;41.66
70555;BME280;58104;52.744;15.242;2023-07-30T12:11:48;100133.99;;;26.48;40.69
70555;BME280;58104;52.744;15.242;2023-07-30T12:14:12;100136.08;;;26.60;40.53
70555;BME280;58104;52.744;15.242;2023-07-30T12:16:37;100135.91;;;26.27;41.90
70555;BME280;58104;52.744;15.242;2023-07-30T12:19:02;100135.17;;;26.21;40.94
70555;BME280;58104;52.744;15.242;2023-07-30T12:21:28;100142.78;;;26.43;40.32
70555;BME280;58104;52.744;15.242;2023-07-30T12:23:53;100142.59;;;26.54;38.98
70555;BME280;58104;52.744;15.242;2023-07-30T12:26:18;100147.07;;;26.54;38.66
70555;BME280;58104;52.744;15.242;2023-07-30T12:28:44;100145.99;;;26.14;38.60
70555;BME280;58104;52.744;15.242;2023-07-30T12:31:09;100136.21;;;26.44;38.29